Observations for Trim Market St
| Time | AQI | Temp °C | Hum % | Pres Pa | CO μg/m³ | H₂S μg/m³ | NO μg/m³ | NO₂ μg/m³ | O₃ μg/m³ | SO₂ μg/m³ | PM1 μg/m³ | PM2.5 μg/m³ | PM10 μg/m³ |
|---|---|---|---|---|---|---|---|---|---|---|---|---|---|
| Saturday 22 August 2026 | |||||||||||||
| 15:13 | 2 | 23.6 | 39 | 65,584 | 0 | 0 | 1.28 | 9.62 | 74.97 | 0 | 2.14 | 7.7 | 10.77 |
| 15:12 | 2 | 23.6 | 39 | 65,584 | 0 | 0 | 1.28 | 12.15 | 68.9 | 0 | 2.14 | 6.11 | 7.53 |
| 15:11 | 2 | 23.7 | 39 | 65,556 | 0 | 0 | 1.13 | 19.46 | 67.91 | 0 | 2.14 | 7.7 | 11.58 |
| 15:10 | 2 | 23.7 | 39 | 65,546 | 0.02 | 0 | 1.17 | 9.86 | 73.82 | 0 | 1.43 | 6.64 | 12.39 |
| 15:09 | 2 | 23.7 | 39 | 65,532 | 0 | 0 | 1.07 | 9.82 | 76.39 | 0 | 2.14 | 6.1 | 6.72 |
| 15:08 | 2 | 23.7 | 39 | 65,513 | 0 | 0 | 1.16 | 12.69 | 68.56 | 0 | 2.85 | 6.62 | 10.76 |
| 15:07 | 2 | 23.7 | 39 | 65,521 | 0.13 | 0 | 1.22 | 9.79 | 74.8 | 0 | 2.14 | 6.62 | 10.76 |
| 15:06 | 2 | 23.7 | 39 | 65,529 | 0.66 | 0 | 1.37 | 18.9 | 67.19 | 0 | 2.14 | 6.1 | 9.96 |
| 15:05 | 2 | 23.7 | 39 | 65,540 | 0.03 | 0 | 1.24 | 11.73 | 70.01 | 0 | 2.85 | 7.68 | 12.38 |
| 15:04 | 2 | 23.7 | 39 | 65,554 | 0 | 0 | 1.39 | 11.36 | 75.12 | 0 | 2.14 | 7.15 | 9.96 |
| 15:03 | 2 | 23.7 | 39 | 65,574 | 0.02 | 0 | 1.12 | 15.65 | 68.03 | 0 | 2.14 | 6.62 | 8.34 |
| 14:59 | 2 | 23.7 | 39 | 65,570 | 0 | 0 | 1.04 | 9.91 | 108.86 | 0 | 2.14 | 7.7 | 9.96 |
| 14:56 | 2 | 23.7 | 38 | 65,552 | 0 | 0 | 1.09 | 8.92 | 71.56 | 0 | 2.14 | 7.19 | 9.97 |
| 14:54 | 2 | 23.7 | 39 | 65,566 | 0 | 0 | 1.66 | 9.67 | 69.83 | 0 | 2.85 | 7.19 | 9.97 |
| 14:53 | 2 | 23.7 | 38 | 65,592 | 0 | 0 | 1.65 | 14.35 | 69.48 | 0 | 2.85 | 7.19 | 9.15 |
| 14:45 | 2 | 23.8 | 38 | 65,544 | 0.05 | 0 | 1.59 | 13.85 | 69.71 | 0 | 4.28 | 8.81 | 11.61 |
| 14:44 | 2 | 23.9 | 38 | 65,560 | 0.09 | 0 | 1.58 | 9.75 | 70.26 | 0 | 1.43 | 5.63 | 6.71 |
| 14:42 | 2 | 23.9 | 38 | 65,572 | 0.19 | 0 | 1.38 | 18.65 | 67.38 | 0 | 2.85 | 7.22 | 8.34 |
| 14:41 | 2 | 23.9 | 38 | 65,596 | 0.32 | 0 | 1.28 | 18.66 | 68.18 | 0 | 2.14 | 6.17 | 8.34 |
| 14:39 | 2 | 24 | 38 | 65,560 | 0 | 0 | 1.4 | 9.2 | 71.57 | 0 | 1.43 | 7.23 | 8.34 |